createdAt,value
2023-01-19T00:00:30.305Z,27.10
2023-01-19T00:02:56.901Z,26.00
2023-01-19T00:05:23.711Z,24.75
2023-01-19T00:07:50.220Z,26.02
2023-01-19T00:10:17.096Z,29.77
2023-01-19T00:12:43.664Z,25.00
2023-01-19T00:15:10.683Z,21.02
2023-01-19T00:17:37.192Z,22.50
2023-01-19T00:20:04.133Z,24.90
2023-01-19T00:22:30.669Z,24.15
2023-01-19T00:24:57.363Z,23.23
2023-01-19T00:27:24.940Z,23.15
2023-01-19T00:29:51.685Z,25.08
2023-01-19T00:32:19.737Z,22.38
2023-01-19T00:34:49.351Z,29.17
2023-01-19T00:37:16.693Z,26.98
2023-01-19T00:39:43.563Z,22.80
2023-01-19T00:42:31.570Z,28.33
2023-01-19T00:44:58.263Z,21.25
2023-01-19T00:47:25.231Z,23.65
2023-01-19T00:49:51.818Z,20.52
2023-01-19T00:52:18.306Z,25.55
2023-01-19T00:54:44.878Z,22.83
2023-01-19T00:57:11.377Z,25.63
2023-01-19T00:59:37.987Z,23.67
2023-01-19T01:02:04.653Z,31.45
2023-01-19T01:04:31.327Z,25.65
2023-01-19T01:06:57.843Z,27.60
2023-01-19T01:09:24.512Z,20.90
2023-01-19T01:11:51.655Z,31.90
2023-01-19T01:14:19.286Z,26.20
2023-01-19T01:16:46.071Z,28.13
2023-01-19T01:19:12.688Z,27.55
2023-01-19T01:21:39.237Z,25.05
2023-01-19T01:24:06.084Z,27.55
2023-01-19T01:26:32.645Z,25.88
2023-01-19T01:28:59.154Z,23.17
2023-01-19T01:31:26.087Z,29.95
2023-01-19T01:33:52.887Z,31.17
2023-01-19T01:36:20.675Z,37.33
2023-01-19T01:38:47.938Z,25.55
2023-01-19T01:41:14.477Z,29.83
2023-01-19T01:43:47.124Z,24.45
2023-01-19T01:46:15.480Z,25.35
2023-01-19T01:48:46.782Z,26.17
2023-01-19T01:51:25.000Z,30.92
2023-01-19T01:54:08.851Z,26.25
2023-01-19T01:56:38.196Z,23.13
2023-01-19T01:59:07.840Z,26.17
2023-01-19T02:01:54.283Z,27.00
2023-01-19T02:04:22.631Z,28.30
2023-01-19T02:07:07.556Z,31.85
2023-01-19T02:09:55.124Z,23.70
2023-01-19T02:12:41.051Z,27.17
2023-01-19T02:15:15.962Z,31.75
2023-01-19T02:17:42.896Z,33.88
2023-01-19T02:20:10.644Z,28.13
2023-01-19T02:22:42.429Z,28.13
2023-01-19T02:25:09.110Z,28.77
2023-01-19T02:27:36.955Z,27.35
2023-01-19T02:30:04.006Z,25.67
2023-01-19T02:32:30.818Z,29.42
2023-01-19T02:34:57.616Z,29.08
2023-01-19T02:37:24.426Z,22.27
2023-01-19T02:40:01.846Z,29.38
2023-01-19T02:42:32.373Z,27.00
2023-01-19T02:44:59.847Z,28.52
2023-01-19T02:47:26.428Z,33.95
2023-01-19T02:49:59.913Z,28.67
2023-01-19T02:52:27.275Z,18.77
2023-01-19T02:54:58.179Z,27.13
2023-01-19T02:58:03.360Z,19.58
2023-01-19T03:00:49.886Z,20.45
2023-01-19T03:03:28.282Z,25.02
2023-01-19T03:06:07.268Z,32.40
2023-01-19T03:08:40.781Z,29.17
2023-01-19T03:11:12.164Z,23.50
2023-01-19T03:13:44.473Z,29.92
2023-01-19T03:16:27.248Z,25.95
2023-01-19T03:18:56.537Z,26.77
2023-01-19T03:21:26.305Z,21.33
2023-01-19T03:23:54.207Z,28.30
2023-01-19T03:26:25.027Z,21.33
2023-01-19T03:28:52.478Z,21.30
2023-01-19T03:31:24.785Z,27.05
2023-01-19T03:33:54.118Z,27.60
2023-01-19T03:36:26.595Z,25.05
2023-01-19T03:38:54.872Z,25.75
2023-01-19T03:41:22.429Z,25.05
2023-01-19T03:43:50.395Z,22.42
2023-01-19T03:46:18.781Z,24.55
2023-01-19T03:48:46.121Z,24.50
2023-01-19T03:51:14.311Z,23.25
2023-01-19T03:53:41.495Z,22.60
2023-01-19T03:56:17.407Z,23.80
2023-01-19T03:58:43.911Z,23.55
2023-01-19T04:01:10.467Z,26.63
2023-01-19T04:03:37.040Z,25.75
2023-01-19T04:06:03.849Z,20.27
2023-01-19T04:08:30.392Z,25.02
2023-01-19T04:10:57.739Z,32.67
2023-01-19T04:13:24.485Z,25.98
2023-01-19T04:15:51.058Z,27.75
2023-01-19T04:18:17.555Z,37.78
2023-01-19T04:20:44.198Z,28.50
2023-01-19T04:23:10.687Z,26.27
2023-01-19T04:25:38.860Z,26.48
2023-01-19T04:28:05.509Z,36.42
2023-01-19T04:30:32.035Z,28.45
2023-01-19T04:32:59.761Z,30.67
2023-01-19T04:35:26.538Z,35.13
2023-01-19T04:37:53.036Z,29.27
2023-01-19T04:40:19.619Z,25.10
2023-01-19T04:42:46.537Z,29.10
2023-01-19T04:45:13.791Z,36.35
2023-01-19T04:47:40.395Z,30.90
2023-01-19T04:50:07.965Z,34.25
2023-01-19T04:52:35.610Z,32.85
2023-01-19T04:55:04.113Z,34.30
2023-01-19T04:57:31.095Z,32.38
2023-01-19T04:59:58.228Z,31.48
2023-01-19T05:02:25.511Z,40.00
2023-01-19T05:04:52.064Z,34.03
2023-01-19T05:07:18.667Z,32.95
2023-01-19T05:09:45.152Z,36.17
2023-01-19T05:12:11.713Z,31.50
2023-01-19T05:14:38.716Z,34.90
2023-01-19T05:17:05.242Z,39.20
2023-01-19T05:19:31.764Z,40.20
2023-01-19T05:21:58.320Z,37.17
2023-01-19T05:24:24.875Z,35.25
2023-01-19T05:26:51.405Z,32.63
2023-01-19T05:29:17.946Z,36.63
2023-01-19T05:31:44.444Z,31.80
2023-01-19T05:34:11.584Z,36.35
2023-01-19T05:36:38.090Z,40.28
2023-01-19T05:39:04.639Z,39.13
2023-01-19T05:41:31.235Z,32.90
2023-01-19T05:43:57.935Z,35.58
2023-01-19T05:46:24.472Z,31.40
2023-01-19T05:48:51.269Z,33.30
2023-01-19T05:51:17.808Z,27.50
2023-01-19T05:53:44.310Z,28.98
2023-01-19T05:56:11.223Z,30.88
2023-01-19T05:58:39.548Z,22.25
2023-01-19T06:01:08.336Z,23.70
2023-01-19T06:03:36.228Z,24.42
2023-01-19T06:06:03.966Z,26.63
2023-01-19T06:08:30.429Z,23.35
2023-01-19T06:10:56.976Z,21.70
2023-01-19T06:13:23.486Z,21.25
2023-01-19T06:15:56.696Z,20.63
2023-01-19T06:18:23.487Z,20.40
2023-01-19T06:20:50.011Z,22.50
2023-01-19T06:23:16.539Z,32.33
2023-01-19T06:25:43.069Z,22.58
2023-01-19T06:28:09.560Z,26.67
2023-01-19T06:30:36.120Z,20.92
2023-01-19T06:33:03.019Z,19.15
2023-01-19T06:35:29.725Z,23.52
2023-01-19T06:37:56.264Z,23.75
2023-01-19T06:40:22.874Z,27.27
2023-01-19T06:42:49.670Z,19.90
2023-01-19T06:45:16.431Z,21.90
2023-01-19T06:47:43.292Z,12.57
2023-01-19T06:50:10.506Z,17.95
2023-01-19T06:52:42.122Z,18.65
2023-01-19T06:55:10.797Z,17.20
2023-01-19T06:57:40.436Z,20.30
2023-01-19T07:00:08.897Z,20.10
2023-01-19T07:02:36.004Z,25.15
2023-01-19T07:05:02.633Z,29.45
2023-01-19T07:07:29.325Z,24.40
2023-01-19T07:09:55.854Z,27.85
2023-01-19T07:12:22.838Z,26.88
2023-01-19T07:14:49.728Z,28.30
2023-01-19T07:17:16.491Z,30.13
2023-01-19T07:19:43.198Z,30.35
2023-01-19T07:22:09.921Z,31.45
2023-01-19T07:24:37.922Z,34.55
2023-01-19T07:27:05.320Z,34.55
2023-01-19T07:29:34.157Z,35.97
2023-01-19T07:32:00.643Z,39.50
2023-01-19T07:34:27.446Z,35.22
2023-01-19T07:36:55.842Z,35.33
2023-01-19T07:39:22.363Z,32.72
2023-01-19T07:41:48.980Z,32.78
2023-01-19T07:44:15.578Z,38.95
2023-01-19T07:46:43.335Z,34.80
2023-01-19T07:49:09.923Z,34.33
2023-01-19T07:51:36.572Z,39.25
2023-01-19T07:54:03.113Z,37.75
2023-01-19T07:56:33.582Z,34.05
2023-01-19T07:59:00.292Z,38.20
2023-01-19T08:01:27.156Z,39.58
2023-01-19T08:03:53.703Z,40.72
2023-01-19T08:06:22.889Z,33.47
2023-01-19T08:08:49.739Z,40.90
2023-01-19T08:11:16.720Z,38.22
2023-01-19T08:13:43.605Z,37.63
2023-01-19T08:16:10.234Z,38.33
2023-01-19T08:18:36.842Z,36.90
2023-01-19T08:21:03.555Z,44.53
2023-01-19T08:23:30.120Z,41.95
2023-01-19T08:25:57.192Z,48.40
2023-01-19T08:28:23.741Z,42.33
2023-01-19T08:30:56.389Z,50.83
2023-01-19T08:33:24.234Z,45.35
2023-01-19T08:35:54.000Z,48.95
2023-01-19T08:38:20.542Z,54.45
2023-01-19T08:40:47.086Z,48.20
2023-01-19T08:43:16.054Z,62.45
2023-01-19T08:45:48.661Z,54.20
2023-01-19T08:48:17.145Z,60.53
2023-01-19T08:50:45.768Z,59.13
2023-01-19T08:53:12.324Z,59.47
2023-01-19T08:55:39.629Z,69.97
2023-01-19T08:58:07.823Z,55.83
2023-01-19T09:00:37.771Z,63.60
2023-01-19T09:03:06.325Z,63.53
2023-01-19T09:05:38.885Z,71.35
2023-01-19T09:08:10.962Z,64.20
2023-01-19T09:10:39.008Z,74.47
2023-01-19T09:13:08.288Z,66.72
2023-01-19T09:15:37.486Z,75.70
2023-01-19T09:18:05.885Z,75.15
2023-01-19T09:20:34.650Z,73.97
2023-01-19T09:23:01.233Z,78.07
2023-01-19T09:25:27.768Z,61.95
2023-01-19T09:27:56.054Z,83.40
2023-01-19T09:30:22.691Z,83.55
2023-01-19T09:32:49.223Z,76.70
2023-01-19T09:35:16.382Z,68.90
2023-01-19T09:37:46.281Z,77.05
2023-01-19T09:40:13.438Z,78.80
2023-01-19T09:42:52.147Z,72.53
2023-01-19T09:45:33.526Z,80.47
2023-01-19T09:48:01.445Z,78.43
2023-01-19T09:50:33.446Z,91.75
2023-01-19T09:53:07.281Z,81.53
2023-01-19T09:55:33.932Z,79.70
2023-01-19T09:58:01.060Z,95.88
2023-01-19T10:00:29.455Z,98.95
2023-01-19T10:03:00.212Z,98.43
2023-01-19T10:05:31.547Z,92.18
2023-01-19T10:10:35.119Z,95.40
2023-01-19T10:13:14.422Z,93.07
2023-01-19T10:15:46.855Z,90.75
2023-01-19T10:18:17.311Z,97.00
2023-01-19T10:20:50.951Z,101.68
2023-01-19T10:23:36.781Z,107.13
2023-01-19T10:26:13.124Z,94.43
2023-01-19T10:28:39.837Z,103.75
2023-01-19T10:31:09.345Z,102.03
2023-01-19T10:33:36.745Z,98.15
2023-01-19T10:36:05.710Z,82.70
2023-01-19T10:38:34.351Z,84.20
2023-01-19T10:41:19.910Z,96.18
2023-01-19T10:43:47.636Z,97.28
2023-01-19T10:46:20.900Z,93.30
2023-01-19T10:48:52.246Z,103.43
2023-01-19T10:51:19.729Z,95.15
2023-01-19T10:53:58.158Z,86.18
2023-01-19T10:56:32.895Z,93.15
2023-01-19T10:59:00.887Z,97.93
2023-01-19T11:01:29.816Z,99.28
2023-01-19T11:04:05.671Z,97.47
2023-01-19T11:06:34.192Z,82.75
2023-01-19T11:09:18.641Z,74.30
2023-01-19T11:11:50.296Z,83.40
2023-01-19T11:14:22.155Z,89.10
2023-01-19T11:16:53.014Z,86.65
2023-01-19T11:19:24.392Z,92.03
2023-01-19T11:21:50.953Z,82.88
2023-01-19T11:24:17.503Z,79.57
2023-01-19T11:26:49.077Z,82.10
2023-01-19T11:29:19.106Z,89.70
2023-01-19T11:31:45.821Z,91.18
2023-01-19T11:34:34.194Z,83.82
2023-01-19T11:37:05.507Z,74.70
2023-01-19T11:39:45.908Z,81.13
2023-01-19T11:42:13.494Z,79.40
2023-01-19T11:44:46.986Z,86.95
2023-01-19T11:47:19.167Z,78.68
2023-01-19T11:49:51.117Z,73.03
2023-01-19T11:52:29.607Z,79.53
2023-01-19T11:55:13.694Z,83.20
2023-01-19T11:57:46.141Z,86.55
2023-01-19T12:00:36.528Z,71.00
2023-01-19T12:03:10.966Z,80.13
2023-01-19T12:05:40.307Z,71.90
2023-01-19T12:08:15.699Z,74.35
2023-01-19T12:10:45.119Z,71.85
2023-01-19T12:13:20.946Z,67.80
2023-01-19T12:15:48.639Z,67.30
2023-01-19T12:18:19.682Z,72.07
2023-01-19T12:20:53.896Z,70.97
2023-01-19T12:23:29.005Z,64.32
2023-01-19T12:26:16.649Z,63.67
2023-01-19T12:28:47.815Z,58.70
2023-01-19T12:31:16.971Z,49.35
2023-01-19T12:33:43.588Z,59.33
2023-01-19T12:36:38.777Z,51.78
2023-01-19T12:39:08.291Z,56.03
2023-01-19T12:41:36.618Z,50.72
2023-01-19T12:44:12.214Z,57.88
2023-01-19T12:46:43.262Z,55.97
2023-01-19T12:49:33.981Z,48.97
2023-01-19T12:52:23.071Z,50.15
2023-01-19T12:54:55.436Z,45.65
2023-01-19T12:57:35.095Z,60.50
2023-01-19T13:00:09.871Z,45.80
2023-01-19T13:02:47.280Z,40.85
2023-01-19T13:05:18.266Z,41.95
2023-01-19T13:08:03.056Z,50.70
2023-01-19T13:10:56.209Z,48.25
2023-01-19T13:13:27.799Z,43.25
2023-01-19T13:15:56.014Z,49.67
2023-01-19T13:18:28.673Z,45.65
2023-01-19T13:20:58.897Z,44.50
2023-01-19T13:23:27.597Z,50.17
2023-01-19T13:26:05.664Z,46.17
2023-01-19T13:28:37.014Z,45.00
2023-01-19T13:31:05.125Z,53.28
2023-01-19T13:33:40.631Z,54.17
2023-01-19T13:36:20.703Z,46.72
2023-01-19T13:38:49.071Z,57.22
2023-01-19T13:41:16.976Z,47.33
2023-01-19T13:43:43.754Z,46.70
2023-01-19T13:46:11.801Z,54.15
2023-01-19T13:48:38.593Z,57.90
2023-01-19T13:51:08.229Z,55.25
2023-01-19T13:53:35.361Z,46.45
2023-01-19T13:56:20.521Z,52.05
2023-01-19T13:59:09.998Z,48.78
2023-01-19T14:01:38.109Z,53.03
2023-01-19T14:04:04.933Z,45.13
2023-01-19T14:06:36.703Z,40.53
2023-01-19T14:09:20.244Z,45.47
2023-01-19T14:12:04.289Z,40.38
2023-01-19T14:14:31.319Z,42.92
2023-01-19T14:16:58.159Z,33.65
2023-01-19T14:19:24.992Z,37.67
2023-01-19T14:22:02.652Z,43.58
2023-01-19T14:24:31.989Z,36.47
2023-01-19T14:27:27.719Z,38.88
2023-01-19T14:29:54.809Z,40.95
2023-01-19T14:32:25.206Z,36.08
2023-01-19T14:35:04.045Z,33.60
2023-01-19T14:37:32.830Z,34.88
2023-01-19T14:40:14.781Z,35.28
2023-01-19T14:42:54.867Z,31.85
2023-01-19T14:45:30.446Z,38.13
2023-01-19T14:48:02.286Z,37.45
2023-01-19T14:50:36.903Z,41.03
2023-01-19T14:53:06.312Z,33.10
2023-01-19T14:55:47.980Z,35.20
2023-01-19T14:58:17.617Z,32.90
2023-01-19T15:00:44.857Z,35.03
2023-01-19T15:03:11.594Z,44.55
2023-01-19T15:05:39.297Z,40.92
2023-01-19T15:08:06.147Z,31.77
2023-01-19T15:10:34.920Z,32.55
2023-01-19T15:13:01.698Z,38.50
2023-01-19T15:15:32.989Z,32.97
2023-01-19T15:18:01.615Z,32.13
2023-01-19T15:20:28.546Z,36.45
2023-01-19T15:22:55.055Z,35.80
2023-01-19T15:25:25.980Z,40.85
2023-01-19T15:27:53.005Z,41.80
2023-01-19T15:30:22.203Z,42.78
2023-01-19T15:32:49.161Z,35.45
2023-01-19T15:35:23.555Z,41.40
2023-01-19T15:37:50.682Z,35.63
2023-01-19T15:40:19.758Z,39.17
2023-01-19T15:42:47.634Z,40.65
2023-01-19T15:45:32.014Z,41.10
2023-01-19T15:47:59.849Z,49.65
2023-01-19T15:50:27.172Z,47.10
2023-01-19T15:52:53.838Z,33.85
2023-01-19T15:55:20.342Z,51.78
2023-01-19T15:57:47.767Z,46.38
2023-01-19T16:00:14.974Z,44.90
2023-01-19T16:02:41.634Z,45.38
2023-01-19T16:05:09.073Z,46.10
2023-01-19T16:07:35.977Z,44.75
2023-01-19T16:10:04.456Z,47.20
2023-01-19T16:12:31.173Z,47.60
2023-01-19T16:14:57.675Z,41.92
2023-01-19T16:17:24.228Z,45.60
2023-01-19T16:19:50.675Z,54.65
2023-01-19T16:22:17.208Z,51.90
2023-01-19T16:24:43.749Z,49.70
2023-01-19T16:27:10.295Z,51.83
2023-01-19T16:29:36.835Z,51.28
2023-01-19T16:32:03.418Z,54.30
2023-01-19T16:34:30.027Z,49.08
2023-01-19T16:36:56.606Z,51.45
2023-01-19T16:39:23.223Z,46.95
2023-01-19T16:41:49.791Z,51.60
2023-01-19T16:44:16.911Z,54.08
2023-01-19T16:46:45.555Z,47.63
2023-01-19T16:49:13.606Z,52.92
2023-01-19T16:51:40.915Z,54.30
2023-01-19T16:54:08.189Z,60.70
2023-01-19T16:56:34.743Z,56.45
2023-01-19T16:59:01.271Z,48.05
2023-01-19T17:01:29.562Z,49.90
2023-01-19T17:03:56.418Z,52.33
2023-01-19T17:06:24.401Z,47.42
2023-01-19T17:08:52.011Z,50.85
2023-01-19T17:11:21.373Z,47.17
2023-01-19T17:13:59.960Z,53.15
2023-01-19T17:16:28.115Z,53.38
2023-01-19T17:18:56.892Z,57.38
2023-01-19T17:21:23.979Z,53.72
2023-01-19T17:23:52.144Z,58.38
2023-01-19T17:26:18.796Z,50.58
2023-01-19T17:28:45.631Z,46.97
2023-01-19T17:31:18.046Z,55.75
2023-01-19T17:33:45.920Z,43.03
2023-01-19T17:36:22.278Z,47.25
2023-01-19T17:38:49.827Z,54.67
2023-01-19T17:41:17.367Z,54.63
2023-01-19T17:43:44.364Z,54.00
2023-01-19T17:46:11.128Z,52.13
2023-01-19T17:48:38.240Z,51.08
2023-01-19T17:51:07.169Z,57.30
2023-01-19T17:53:35.956Z,53.10
2023-01-19T17:56:10.260Z,64.78
2023-01-19T17:58:37.149Z,51.90
2023-01-19T18:01:11.016Z,61.47
2023-01-19T18:03:37.922Z,62.78
2023-01-19T18:06:04.618Z,57.28
2023-01-19T18:08:32.496Z,63.28
2023-01-19T18:11:00.225Z,58.72
2023-01-19T18:13:27.435Z,73.65
2023-01-19T18:16:02.222Z,57.08
2023-01-19T18:18:29.096Z,55.95
2023-01-19T18:21:04.207Z,61.20
2023-01-19T18:23:30.715Z,62.00
2023-01-19T18:25:59.183Z,56.28
2023-01-19T18:28:26.703Z,55.38
2023-01-19T18:30:53.618Z,49.72
2023-01-19T18:33:20.548Z,58.88
2023-01-19T18:35:47.316Z,55.25
2023-01-19T18:38:14.197Z,57.15
2023-01-19T18:40:40.713Z,62.92
2023-01-19T18:43:08.613Z,68.25
2023-01-19T18:45:36.861Z,61.63
2023-01-19T18:48:04.048Z,60.58
2023-01-19T18:50:30.536Z,55.97
2023-01-19T18:52:57.020Z,60.00
2023-01-19T18:55:24.086Z,62.08
2023-01-19T18:57:50.927Z,62.38
2023-01-19T19:00:19.298Z,63.20
2023-01-19T19:02:45.864Z,52.83
2023-01-19T19:05:12.395Z,53.10
2023-01-19T19:07:38.953Z,58.45
2023-01-19T19:10:06.118Z,66.50
2023-01-19T19:12:32.748Z,63.88
2023-01-19T19:14:59.251Z,56.90
2023-01-19T19:17:25.827Z,53.55
2023-01-19T19:19:52.456Z,63.58
2023-01-19T19:22:19.205Z,58.47
2023-01-19T19:24:45.764Z,60.15
2023-01-19T19:27:14.181Z,64.18
2023-01-19T19:29:41.261Z,56.15
2023-01-19T19:32:07.805Z,56.80
2023-01-19T19:34:34.379Z,57.92
2023-01-19T19:37:01.359Z,61.92
2023-01-19T19:39:28.569Z,65.65
2023-01-19T19:41:55.158Z,64.75
2023-01-19T19:44:21.793Z,68.57
2023-01-19T19:46:48.469Z,68.70
2023-01-19T19:49:17.649Z,60.92
2023-01-19T19:51:44.274Z,70.88
2023-01-19T19:54:10.763Z,64.32
2023-01-19T19:56:37.258Z,62.17
2023-01-19T19:59:03.788Z,79.32
2023-01-19T20:01:33.607Z,78.97
2023-01-19T20:04:08.494Z,70.20
2023-01-19T20:06:39.765Z,75.05
2023-01-19T20:09:08.839Z,73.20
2023-01-19T20:11:35.593Z,61.83
2023-01-19T20:14:10.400Z,73.07
2023-01-19T20:16:37.942Z,55.30
2023-01-19T20:19:04.938Z,63.70
2023-01-19T20:21:36.609Z,57.30
2023-01-19T20:24:06.830Z,63.35
2023-01-19T20:26:36.172Z,59.43
2023-01-19T20:29:06.712Z,67.32
2023-01-19T20:31:39.077Z,52.38
2023-01-19T20:34:07.829Z,63.75
2023-01-19T20:36:34.701Z,62.80
2023-01-19T20:39:08.156Z,58.38
2023-01-19T20:41:37.687Z,59.20
2023-01-19T20:44:05.134Z,42.70
2023-01-19T20:46:31.599Z,62.53
2023-01-19T20:48:58.121Z,58.10
2023-01-19T20:51:26.664Z,56.35
2023-01-19T20:53:53.156Z,65.63
2023-01-19T20:56:19.693Z,56.42
2023-01-19T20:58:46.426Z,73.05
2023-01-19T21:01:19.453Z,64.72
2023-01-19T21:03:46.312Z,69.70
2023-01-19T21:06:13.584Z,61.90
2023-01-19T21:08:40.635Z,61.83
2023-01-19T21:11:07.631Z,57.25
2023-01-19T21:13:34.793Z,58.58
2023-01-19T21:16:01.790Z,63.33
2023-01-19T21:18:28.499Z,54.83
2023-01-19T21:20:57.331Z,73.68
2023-01-19T21:23:25.117Z,54.58
2023-01-19T21:25:53.111Z,55.42
2023-01-19T21:28:19.952Z,49.88
2023-01-19T21:30:46.692Z,53.97
2023-01-19T21:33:13.429Z,53.65
2023-01-19T21:35:39.939Z,54.13
2023-01-19T21:38:06.624Z,60.28
2023-01-19T21:40:33.284Z,60.75
2023-01-19T21:42:59.853Z,64.13
2023-01-19T21:45:26.465Z,54.80
2023-01-19T21:47:53.059Z,54.28
2023-01-19T21:50:19.563Z,60.00
2023-01-19T21:52:46.255Z,65.15
2023-01-19T21:55:13.127Z,70.75
2023-01-19T21:57:39.792Z,61.33
2023-01-19T22:00:06.979Z,65.22
2023-01-19T22:02:38.964Z,63.15
2023-01-19T22:07:33.121Z,58.20
2023-01-19T22:09:59.752Z,62.65
2023-01-19T22:12:26.429Z,54.30
2023-01-19T22:14:53.121Z,57.10
2023-01-19T22:17:19.714Z,68.07
2023-01-19T22:19:46.218Z,62.00
2023-01-19T22:22:12.700Z,58.97
2023-01-19T22:24:39.656Z,66.80
2023-01-19T22:27:06.165Z,56.17
2023-01-19T22:29:32.761Z,63.25
2023-01-19T22:31:59.319Z,58.80
2023-01-19T22:34:26.138Z,58.28
2023-01-19T22:36:52.727Z,65.00
2023-01-19T22:39:19.439Z,71.25
2023-01-19T22:41:46.857Z,72.85
2023-01-19T22:44:15.575Z,72.10
2023-01-19T22:46:42.642Z,63.78
2023-01-19T22:49:12.425Z,78.43
2023-01-19T22:51:39.145Z,73.72
2023-01-19T22:54:05.774Z,73.40
2023-01-19T22:56:34.338Z,69.03
2023-01-19T22:59:00.928Z,65.40
2023-01-19T23:01:36.772Z,79.43
2023-01-19T23:04:04.545Z,71.40
2023-01-19T23:06:33.658Z,67.00
2023-01-19T23:09:01.855Z,71.88
2023-01-19T23:11:34.228Z,73.82
2023-01-19T23:14:02.300Z,67.72
2023-01-19T23:16:28.847Z,71.57
2023-01-19T23:18:56.953Z,71.13
2023-01-19T23:21:26.011Z,64.75
2023-01-19T23:23:54.962Z,83.00
2023-01-19T23:26:22.482Z,72.38
2023-01-19T23:28:54.320Z,85.28
2023-01-19T23:31:23.601Z,72.72
2023-01-19T23:33:51.702Z,78.50
2023-01-19T23:36:19.124Z,73.72
2023-01-19T23:38:49.831Z,77.78
2023-01-19T23:41:16.847Z,71.82
2023-01-19T23:43:43.453Z,65.65
2023-01-19T23:46:11.255Z,70.82
2023-01-19T23:48:37.953Z,82.00
2023-01-19T23:51:15.787Z,80.68
2023-01-19T23:53:42.692Z,72.43
2023-01-19T23:56:13.368Z,75.85
2023-01-19T23:58:40.566Z,75.10
